sensor_id;sensor_type;location;lat;lon;timestamp;P1;durP1;ratioP1;P2;durP2;ratioP2
44430;SDS011;30135;47.866;-4.222;2023-02-01T16:55:13;18.75;;;2.13;;
44430;SDS011;30135;47.866;-4.222;2023-02-01T16:57:50;13.57;;;1.85;;
44430;SDS011;30135;47.866;-4.222;2023-02-01T17:00:16;15.90;;;2.40;;
44430;SDS011;30135;47.866;-4.222;2023-02-01T17:02:43;11.93;;;2.15;;
44430;SDS011;30135;47.866;-4.222;2023-02-01T17:05:10;11.45;;;1.80;;
44430;SDS011;30135;47.866;-4.222;2023-02-01T17:07:37;12.25;;;2.42;;
44430;SDS011;30135;47.866;-4.222;2023-02-01T17:10:04;15.13;;;2.42;;
44430;SDS011;30135;47.866;-4.222;2023-02-01T17:12:40;15.88;;;3.50;;
44430;SDS011;30135;47.866;-4.222;2023-02-01T17:15:06;19.00;;;2.63;;
44430;SDS011;30135;47.866;-4.222;2023-02-01T17:17:38;12.30;;;2.72;;
44430;SDS011;30135;47.866;-4.222;2023-02-01T17:20:18;16.20;;;3.15;;
44430;SDS011;30135;47.866;-4.222;2023-02-01T17:22:47;26.25;;;3.72;;
44430;SDS011;30135;47.866;-4.222;2023-02-01T17:25:19;10.80;;;2.72;;
44430;SDS011;30135;47.866;-4.222;2023-02-01T17:27:47;14.23;;;2.53;;
44430;SDS011;30135;47.866;-4.222;2023-02-01T17:30:14;9.52;;;1.67;;
44430;SDS011;30135;47.866;-4.222;2023-02-01T17:32:40;23.92;;;3.30;;
44430;SDS011;30135;47.866;-4.222;2023-02-01T17:35:20;23.33;;;2.25;;
44430;SDS011;30135;47.866;-4.222;2023-02-01T17:37:52;19.90;;;2.50;;
44430;SDS011;30135;47.866;-4.222;2023-02-01T17:40:19;11.98;;;2.35;;
44430;SDS011;30135;47.866;-4.222;2023-02-01T17:42:45;14.80;;;2.08;;
44430;SDS011;30135;47.866;-4.222;2023-02-01T17:48:06;13.00;;;2.17;;
44430;SDS011;30135;47.866;-4.222;2023-02-01T17:50:34;18.70;;;2.55;;
44430;SDS011;30135;47.866;-4.222;2023-02-01T17:53:02;15.95;;;3.20;;
44430;SDS011;30135;47.866;-4.222;2023-02-01T17:55:34;15.00;;;2.35;;
44430;SDS011;30135;47.866;-4.222;2023-02-01T17:58:04;15.45;;;2.65;;
44430;SDS011;30135;47.866;-4.222;2023-02-01T18:00:31;11.43;;;2.35;;
44430;SDS011;30135;47.866;-4.222;2023-02-01T18:02:57;14.35;;;2.30;;
44430;SDS011;30135;47.866;-4.222;2023-02-01T18:05:30;12.45;;;2.00;;
44430;SDS011;30135;47.866;-4.222;2023-02-01T18:08:14;11.60;;;2.25;;
44430;SDS011;30135;47.866;-4.222;2023-02-01T18:10:42;12.55;;;2.33;;
44430;SDS011;30135;47.866;-4.222;2023-02-01T18:13:09;18.15;;;2.33;;
44430;SDS011;30135;47.866;-4.222;2023-02-01T18:15:36;19.58;;;2.35;;
44430;SDS011;30135;47.866;-4.222;2023-02-01T18:18:10;20.70;;;2.85;;
44430;SDS011;30135;47.866;-4.222;2023-02-01T18:20:36;13.07;;;2.50;;
44430;SDS011;30135;47.866;-4.222;2023-02-01T18:23:17;11.85;;;1.90;;
44430;SDS011;30135;47.866;-4.222;2023-02-01T18:25:47;21.33;;;2.80;;
44430;SDS011;30135;47.866;-4.222;2023-02-01T18:28:15;10.60;;;2.72;;
44430;SDS011;30135;47.866;-4.222;2023-02-01T18:30:43;18.13;;;2.90;;
44430;SDS011;30135;47.866;-4.222;2023-02-01T18:35:41;18.05;;;3.60;;
44430;SDS011;30135;47.866;-4.222;2023-02-01T18:38:08;9.38;;;2.80;;
44430;SDS011;30135;47.866;-4.222;2023-02-01T18:40:35;14.70;;;2.55;;
44430;SDS011;30135;47.866;-4.222;2023-02-01T18:43:16;23.25;;;3.72;;
44430;SDS011;30135;47.866;-4.222;2023-02-01T18:45:46;9.13;;;3.13;;
44430;SDS011;30135;47.866;-4.222;2023-02-01T18:48:13;20.70;;;3.45;;
44430;SDS011;30135;47.866;-4.222;2023-02-01T18:50:41;21.17;;;3.13;;
44430;SDS011;30135;47.866;-4.222;2023-02-01T18:53:12;24.98;;;3.83;;
44430;SDS011;30135;47.866;-4.222;2023-02-01T18:55:46;21.90;;;3.60;;
44430;SDS011;30135;47.866;-4.222;2023-02-01T18:58:13;12.13;;;2.92;;
44430;SDS011;30135;47.866;-4.222;2023-02-01T19:00:42;8.13;;;2.92;;
44430;SDS011;30135;47.866;-4.222;2023-02-01T19:03:10;19.45;;;3.40;;
44430;SDS011;30135;47.866;-4.222;2023-02-01T19:05:37;13.73;;;3.13;;
44430;SDS011;30135;47.866;-4.222;2023-02-01T19:08:03;29.42;;;4.65;;
44430;SDS011;30135;47.866;-4.222;2023-02-01T19:10:30;16.05;;;3.30;;
44430;SDS011;30135;47.866;-4.222;2023-02-01T19:12:57;15.23;;;3.60;;
44430;SDS011;30135;47.866;-4.222;2023-02-01T19:15:23;23.73;;;4.03;;
44430;SDS011;30135;47.866;-4.222;2023-02-01T19:17:51;14.60;;;3.42;;
44430;SDS011;30135;47.866;-4.222;2023-02-01T19:20:20;31.05;;;6.13;;
44430;SDS011;30135;47.866;-4.222;2023-02-01T19:25:19;12.73;;;3.75;;
44430;SDS011;30135;47.866;-4.222;2023-02-01T19:27:48;17.70;;;3.55;;
44430;SDS011;30135;47.866;-4.222;2023-02-01T19:30:16;17.05;;;4.88;;
44430;SDS011;30135;47.866;-4.222;2023-02-01T19:32:44;20.05;;;5.53;;
44430;SDS011;30135;47.866;-4.222;2023-02-01T19:35:12;20.73;;;4.40;;
44430;SDS011;30135;47.866;-4.222;2023-02-01T19:37:43;13.27;;;4.20;;
44430;SDS011;30135;47.866;-4.222;2023-02-01T19:40:11;21.83;;;4.75;;
44430;SDS011;30135;47.866;-4.222;2023-02-01T19:42:39;19.77;;;3.05;;
44430;SDS011;30135;47.866;-4.222;2023-02-01T19:45:05;16.10;;;3.70;;
44430;SDS011;30135;47.866;-4.222;2023-02-01T19:47:32;15.70;;;4.20;;
44430;SDS011;30135;47.866;-4.222;2023-02-01T19:49:59;16.95;;;4.13;;
44430;SDS011;30135;47.866;-4.222;2023-02-01T19:52:25;21.55;;;3.63;;
44430;SDS011;30135;47.866;-4.222;2023-02-01T19:54:51;19.52;;;4.15;;
44430;SDS011;30135;47.866;-4.222;2023-02-01T19:57:17;10.75;;;3.03;;
44430;SDS011;30135;47.866;-4.222;2023-02-01T19:59:43;28.23;;;4.93;;
44430;SDS011;30135;47.866;-4.222;2023-02-01T20:02:15;24.40;;;4.82;;
44430;SDS011;30135;47.866;-4.222;2023-02-01T20:04:41;24.02;;;4.68;;
44430;SDS011;30135;47.866;-4.222;2023-02-01T20:07:07;26.67;;;5.13;;
44430;SDS011;30135;47.866;-4.222;2023-02-01T20:09:37;14.63;;;4.10;;
44430;SDS011;30135;47.866;-4.222;2023-02-01T20:12:08;19.38;;;3.67;;
44430;SDS011;30135;47.866;-4.222;2023-02-01T20:14:36;16.75;;;4.50;;
44430;SDS011;30135;47.866;-4.222;2023-02-01T20:17:03;18.33;;;4.85;;
44430;SDS011;30135;47.866;-4.222;2023-02-01T20:19:31;22.23;;;5.38;;
44430;SDS011;30135;47.866;-4.222;2023-02-01T20:21:57;28.48;;;4.68;;
44430;SDS011;30135;47.866;-4.222;2023-02-01T20:24:24;15.80;;;4.38;;
44430;SDS011;30135;47.866;-4.222;2023-02-01T20:26:50;19.33;;;3.45;;
44430;SDS011;30135;47.866;-4.222;2023-02-01T20:29:17;18.92;;;4.15;;
44430;SDS011;30135;47.866;-4.222;2023-02-01T20:31:43;25.65;;;5.03;;
44430;SDS011;30135;47.866;-4.222;2023-02-01T20:34:10;25.83;;;4.43;;
44430;SDS011;30135;47.866;-4.222;2023-02-01T20:36:37;19.65;;;4.97;;
44430;SDS011;30135;47.866;-4.222;2023-02-01T20:39:03;17.90;;;4.93;;
44430;SDS011;30135;47.866;-4.222;2023-02-01T20:41:30;17.40;;;4.18;;
44430;SDS011;30135;47.866;-4.222;2023-02-01T20:43:56;19.48;;;5.78;;
44430;SDS011;30135;47.866;-4.222;2023-02-01T20:46:22;19.67;;;5.53;;
44430;SDS011;30135;47.866;-4.222;2023-02-01T20:48:49;20.27;;;5.22;;
44430;SDS011;30135;47.866;-4.222;2023-02-01T20:51:16;23.58;;;4.78;;
44430;SDS011;30135;47.866;-4.222;2023-02-01T20:53:44;26.20;;;6.00;;
44430;SDS011;30135;47.866;-4.222;2023-02-01T20:56:12;22.95;;;5.60;;
44430;SDS011;30135;47.866;-4.222;2023-02-01T20:58:40;21.58;;;6.60;;
44430;SDS011;30135;47.866;-4.222;2023-02-01T21:01:07;19.40;;;4.70;;
44430;SDS011;30135;47.866;-4.222;2023-02-01T21:03:35;31.17;;;5.93;;
44430;SDS011;30135;47.866;-4.222;2023-02-01T21:06:02;19.23;;;6.30;;
44430;SDS011;30135;47.866;-4.222;2023-02-01T21:08:29;24.52;;;8.68;;
44430;SDS011;30135;47.866;-4.222;2023-02-01T21:10:57;27.40;;;7.07;;
44430;SDS011;30135;47.866;-4.222;2023-02-01T21:13:29;22.70;;;7.45;;
44430;SDS011;30135;47.866;-4.222;2023-02-01T21:16:00;26.80;;;9.05;;
44430;SDS011;30135;47.866;-4.222;2023-02-01T21:18:28;24.45;;;9.27;;
44430;SDS011;30135;47.866;-4.222;2023-02-01T21:20:55;21.63;;;7.93;;
44430;SDS011;30135;47.866;-4.222;2023-02-01T21:23:22;29.98;;;8.82;;
44430;SDS011;30135;47.866;-4.222;2023-02-01T21:25:48;40.47;;;10.82;;
44430;SDS011;30135;47.866;-4.222;2023-02-01T21:28:14;42.00;;;10.07;;
44430;SDS011;30135;47.866;-4.222;2023-02-01T21:30:41;34.17;;;9.10;;
44430;SDS011;30135;47.866;-4.222;2023-02-01T21:33:07;25.75;;;10.25;;
44430;SDS011;30135;47.866;-4.222;2023-02-01T21:35:33;33.25;;;10.48;;
44430;SDS011;30135;47.866;-4.222;2023-02-01T21:37:59;26.52;;;8.57;;
44430;SDS011;30135;47.866;-4.222;2023-02-01T21:40:25;27.67;;;8.25;;
44430;SDS011;30135;47.866;-4.222;2023-02-01T21:42:52;26.60;;;9.23;;
44430;SDS011;30135;47.866;-4.222;2023-02-01T21:45:18;25.17;;;7.15;;
44430;SDS011;30135;47.866;-4.222;2023-02-01T21:47:44;36.20;;;9.50;;
44430;SDS011;30135;47.866;-4.222;2023-02-01T21:50:16;37.72;;;7.45;;
44430;SDS011;30135;47.866;-4.222;2023-02-01T21:52:44;25.85;;;6.30;;
44430;SDS011;30135;47.866;-4.222;2023-02-01T21:55:11;18.67;;;5.20;;
44430;SDS011;30135;47.866;-4.222;2023-02-01T21:57:38;19.52;;;4.35;;
44430;SDS011;30135;47.866;-4.222;2023-02-01T22:00:05;24.17;;;5.43;;
44430;SDS011;30135;47.866;-4.222;2023-02-01T22:02:32;15.45;;;4.38;;
44430;SDS011;30135;47.866;-4.222;2023-02-01T22:05:00;20.13;;;5.10;;
44430;SDS011;30135;47.866;-4.222;2023-02-01T22:07:29;22.88;;;4.68;;
44430;SDS011;30135;47.866;-4.222;2023-02-01T22:09:55;19.63;;;5.25;;
44430;SDS011;30135;47.866;-4.222;2023-02-01T22:12:21;24.00;;;4.13;;
44430;SDS011;30135;47.866;-4.222;2023-02-01T22:14:47;30.25;;;4.65;;
44430;SDS011;30135;47.866;-4.222;2023-02-01T22:17:13;18.73;;;4.55;;
44430;SDS011;30135;47.866;-4.222;2023-02-01T22:19:40;48.65;;;6.65;;
44430;SDS011;30135;47.866;-4.222;2023-02-01T22:22:06;16.75;;;3.85;;
44430;SDS011;30135;47.866;-4.222;2023-02-01T22:24:35;23.67;;;3.25;;
44430;SDS011;30135;47.866;-4.222;2023-02-01T22:27:01;10.25;;;3.30;;
44430;SDS011;30135;47.866;-4.222;2023-02-01T22:29:27;28.15;;;4.47;;
44430;SDS011;30135;47.866;-4.222;2023-02-01T22:31:53;18.88;;;3.92;;
44430;SDS011;30135;47.866;-4.222;2023-02-01T22:34:20;14.77;;;3.05;;
44430;SDS011;30135;47.866;-4.222;2023-02-01T22:36:49;15.93;;;3.55;;
44430;SDS011;30135;47.866;-4.222;2023-02-01T22:39:15;12.57;;;2.50;;
44430;SDS011;30135;47.866;-4.222;2023-02-01T22:41:40;20.60;;;3.38;;
44430;SDS011;30135;47.866;-4.222;2023-02-01T22:44:07;17.15;;;2.47;;
44430;SDS011;30135;47.866;-4.222;2023-02-01T22:46:33;11.63;;;3.25;;
44430;SDS011;30135;47.866;-4.222;2023-02-01T22:49:02;23.00;;;2.92;;
44430;SDS011;30135;47.866;-4.222;2023-02-01T22:51:30;18.23;;;3.22;;
44430;SDS011;30135;47.866;-4.222;2023-02-01T22:53:57;16.92;;;3.10;;
44430;SDS011;30135;47.866;-4.222;2023-02-01T22:56:25;19.45;;;2.53;;
44430;SDS011;30135;47.866;-4.222;2023-02-01T22:58:57;18.48;;;2.17;;
44430;SDS011;30135;47.866;-4.222;2023-02-01T23:01:29;14.52;;;1.92;;
44430;SDS011;30135;47.866;-4.222;2023-02-01T23:04:00;14.60;;;2.30;;
44430;SDS011;30135;47.866;-4.222;2023-02-01T23:06:30;10.70;;;2.67;;
44430;SDS011;30135;47.866;-4.222;2023-02-01T23:08:59;23.95;;;3.53;;
44430;SDS011;30135;47.866;-4.222;2023-02-01T23:11:29;16.45;;;2.58;;
44430;SDS011;30135;47.866;-4.222;2023-02-01T23:13:55;13.60;;;2.47;;
44430;SDS011;30135;47.866;-4.222;2023-02-01T23:16:22;30.92;;;4.70;;
44430;SDS011;30135;47.866;-4.222;2023-02-01T23:18:48;38.08;;;2.88;;
44430;SDS011;30135;47.866;-4.222;2023-02-01T23:21:16;20.58;;;2.85;;
44430;SDS011;30135;47.866;-4.222;2023-02-01T23:23:45;20.50;;;2.58;;
44430;SDS011;30135;47.866;-4.222;2023-02-01T23:26:13;9.32;;;2.10;;
44430;SDS011;30135;47.866;-4.222;2023-02-01T23:28:39;16.55;;;3.30;;
44430;SDS011;30135;47.866;-4.222;2023-02-01T23:31:06;16.15;;;2.85;;
44430;SDS011;30135;47.866;-4.222;2023-02-01T23:33:35;20.45;;;2.70;;
44430;SDS011;30135;47.866;-4.222;2023-02-01T23:36:02;16.17;;;2.13;;
44430;SDS011;30135;47.866;-4.222;2023-02-01T23:38:31;12.48;;;2.03;;
44430;SDS011;30135;47.866;-4.222;2023-02-01T23:40:59;11.07;;;2.60;;
44430;SDS011;30135;47.866;-4.222;2023-02-01T23:43:28;20.98;;;3.50;;
44430;SDS011;30135;47.866;-4.222;2023-02-01T23:46:14;19.70;;;2.67;;
44430;SDS011;30135;47.866;-4.222;2023-02-01T23:48:41;25.35;;;4.03;;
44430;SDS011;30135;47.866;-4.222;2023-02-01T23:51:08;20.25;;;2.80;;
44430;SDS011;30135;47.866;-4.222;2023-02-01T23:53:34;14.65;;;2.92;;
44430;SDS011;30135;47.866;-4.222;2023-02-01T23:56:01;34.78;;;4.82;;
44430;SDS011;30135;47.866;-4.222;2023-02-01T23:58:27;16.90;;;1.98;;
